createdAt,value
2023-04-07T00:00:27.140Z,95039.91
2023-04-07T00:02:54.213Z,95035.22
2023-04-07T00:05:21.676Z,95036.19
2023-04-07T00:07:55.658Z,95029.56
2023-04-07T00:10:25.312Z,95035.25
2023-04-07T00:12:52.239Z,95038.75
2023-04-07T00:15:18.879Z,95037.25
2023-04-07T00:17:45.619Z,95033.69
2023-04-07T00:20:12.536Z,95035.09
2023-04-07T00:22:39.975Z,95035.91
2023-04-07T00:25:07.407Z,95034.59
2023-04-07T00:27:34.089Z,95036.03
2023-04-07T00:30:00.701Z,95041.81
2023-04-07T00:32:27.392Z,95033.25
2023-04-07T00:34:53.959Z,95029.97
2023-04-07T00:37:21.577Z,95033.00
2023-04-07T00:39:48.327Z,95036.50
2023-04-07T00:42:14.852Z,95026.41
2023-04-07T00:44:41.991Z,95024.88
2023-04-07T00:47:08.556Z,95024.34
2023-04-07T00:49:39.635Z,95024.31
2023-04-07T00:52:07.237Z,95020.81
2023-04-07T00:54:33.944Z,95022.22
2023-04-07T00:57:01.750Z,95012.91
2023-04-07T00:59:31.240Z,95012.22
2023-04-07T01:02:18.260Z,95014.19
2023-04-07T01:04:47.831Z,95007.69
2023-04-07T01:07:27.679Z,95005.16
2023-04-07T01:10:06.544Z,94999.91
2023-04-07T01:13:03.013Z,95004.06
2023-04-07T01:15:31.737Z,95010.66
2023-04-07T01:18:08.727Z,95005.81
2023-04-07T01:20:37.801Z,95007.09
2023-04-07T01:23:07.827Z,95007.91
2023-04-07T01:26:04.839Z,95002.97
2023-04-07T01:29:03.979Z,95009.38
2023-04-07T01:31:30.976Z,95007.53
2023-04-07T01:34:00.575Z,95000.72
2023-04-07T01:36:28.548Z,95003.03
2023-04-07T01:38:56.304Z,95005.59
2023-04-07T01:41:24.494Z,95001.19
2023-04-07T01:43:53.586Z,95002.69
2023-04-07T01:46:21.122Z,95005.47
2023-04-07T01:48:48.921Z,95007.00
2023-04-07T01:51:18.952Z,95003.88
2023-04-07T01:53:46.369Z,95005.03
2023-04-07T01:56:13.192Z,95001.38
2023-04-07T01:58:40.821Z,94997.13
2023-04-07T02:01:11.027Z,94991.66
2023-04-07T02:03:47.203Z,94988.28
2023-04-07T02:06:19.491Z,94984.81
2023-04-07T02:08:50.460Z,94986.31
2023-04-07T02:11:21.133Z,94984.78
2023-04-07T02:13:53.049Z,94982.59
2023-04-07T02:16:22.294Z,94981.31
2023-04-07T02:18:50.117Z,94979.69
2023-04-07T02:21:17.215Z,94977.59
2023-04-07T02:23:46.453Z,94975.75
2023-04-07T02:26:13.381Z,94975.88
2023-04-07T02:28:39.970Z,94969.47
2023-04-07T02:31:06.875Z,94972.38
2023-04-07T02:33:33.503Z,94963.53
2023-04-07T02:36:00.285Z,94961.31
2023-04-07T02:38:28.177Z,94965.16
2023-04-07T02:40:55.617Z,94958.31
2023-04-07T02:43:25.342Z,94955.25
2023-04-07T02:45:52.011Z,94960.59
2023-04-07T02:48:18.703Z,94954.69
2023-04-07T02:50:45.522Z,94955.63
2023-04-07T02:53:12.230Z,94951.53
2023-04-07T02:55:38.901Z,94950.06
2023-04-07T02:58:05.703Z,94949.22
2023-04-07T03:00:42.420Z,94946.31
2023-04-07T03:03:13.085Z,94945.53
2023-04-07T03:05:43.223Z,94943.19
2023-04-07T03:08:12.818Z,94950.63
2023-04-07T03:10:40.014Z,94944.59
2023-04-07T03:13:08.427Z,94943.88
2023-04-07T03:15:35.860Z,94945.03
2023-04-07T03:18:02.492Z,94939.47
2023-04-07T03:20:30.460Z,94939.59
2023-04-07T03:23:02.060Z,94936.22
2023-04-07T03:25:29.789Z,94929.63
2023-04-07T03:27:56.822Z,94935.56
2023-04-07T03:30:26.352Z,94934.72
2023-04-07T03:32:53.197Z,94935.88
2023-04-07T03:35:19.872Z,94931.22
2023-04-07T03:37:46.550Z,94931.56
2023-04-07T03:40:17.013Z,94927.16
2023-04-07T03:42:46.699Z,94925.53
2023-04-07T03:45:14.023Z,94926.69
2023-04-07T03:47:46.011Z,94923.81
2023-04-07T03:50:13.530Z,94924.84
2023-04-07T03:53:01.046Z,94929.00
2023-04-07T03:55:30.646Z,94930.72
2023-04-07T03:58:03.158Z,94920.03
2023-04-07T04:00:33.663Z,94925.44
2023-04-07T04:03:08.095Z,94926.13
2023-04-07T04:05:38.198Z,94920.34
2023-04-07T04:08:06.697Z,94920.88
2023-04-07T04:10:36.644Z,94928.13
2023-04-07T04:13:06.622Z,94925.06
2023-04-07T04:15:33.291Z,94924.25
2023-04-07T04:18:01.816Z,94918.13
2023-04-07T04:20:30.255Z,94915.19
2023-04-07T04:22:56.922Z,94913.34
2023-04-07T04:25:24.549Z,94905.63
2023-04-07T04:27:54.884Z,94907.00
2023-04-07T04:30:24.494Z,94902.78
2023-04-07T04:32:55.533Z,94904.75
2023-04-07T04:35:30.010Z,94907.53
2023-04-07T04:38:09.884Z,94907.72
2023-04-07T04:40:39.387Z,94901.09
2023-04-07T04:43:07.176Z,94906.69
2023-04-07T04:45:36.802Z,94904.34
2023-04-07T04:48:04.818Z,94915.94
2023-04-07T04:50:31.539Z,94919.28
2023-04-07T04:52:58.317Z,94915.75
2023-04-07T04:55:24.945Z,94912.88
2023-04-07T04:57:53.120Z,94906.28
2023-04-07T05:00:28.110Z,94904.22
2023-04-07T05:03:00.899Z,94895.88
2023-04-07T05:05:27.895Z,94904.94
2023-04-07T05:07:56.337Z,94898.69
2023-04-07T05:10:25.026Z,94902.06
2023-04-07T05:12:51.728Z,94899.06
2023-04-07T05:15:18.448Z,94891.34
2023-04-07T05:17:50.518Z,94898.88
2023-04-07T05:20:22.601Z,94892.84
2023-04-07T05:22:49.927Z,94895.38
2023-04-07T05:25:18.278Z,94885.78
2023-04-07T05:27:46.955Z,94889.28
2023-04-07T05:30:16.301Z,94879.44
2023-04-07T05:32:43.497Z,94879.34
2023-04-07T05:35:21.096Z,94881.47
2023-04-07T05:37:53.439Z,94883.22
2023-04-07T05:40:20.394Z,94882.16
2023-04-07T05:42:47.446Z,94878.09
2023-04-07T05:45:14.792Z,94877.06
2023-04-07T05:47:49.997Z,94882.88
2023-04-07T05:50:20.641Z,94879.06
2023-04-07T05:52:49.514Z,94875.16
2023-04-07T05:55:23.215Z,94870.78
2023-04-07T05:57:51.595Z,94866.84
2023-04-07T06:00:21.867Z,94872.78
2023-04-07T06:02:59.305Z,94868.16
2023-04-07T06:05:26.574Z,94874.19
2023-04-07T06:07:55.997Z,94873.13
2023-04-07T06:10:25.849Z,94865.41
2023-04-07T06:12:52.631Z,94865.75
2023-04-07T06:15:19.439Z,94867.16
2023-04-07T06:17:46.205Z,94857.44
2023-04-07T06:20:12.871Z,94857.56
2023-04-07T06:22:39.573Z,94862.00
2023-04-07T06:25:07.974Z,94853.41
2023-04-07T06:27:35.368Z,94851.22
2023-04-07T06:30:02.278Z,94845.75
2023-04-07T06:32:28.841Z,94848.22
2023-04-07T06:34:57.159Z,94849.25
2023-04-07T06:37:25.116Z,94848.81
2023-04-07T06:39:52.174Z,94846.47
2023-04-07T06:42:18.872Z,94853.09
2023-04-07T06:44:57.131Z,94846.47
2023-04-07T06:47:24.339Z,94847.41
2023-04-07T06:49:51.145Z,94852.38
2023-04-07T06:52:17.908Z,94855.75
2023-04-07T06:54:44.859Z,94851.91
2023-04-07T06:57:12.223Z,94854.56
2023-04-07T06:59:39.137Z,94856.41
2023-04-07T07:02:07.825Z,94850.22
2023-04-07T07:04:37.543Z,94854.03
2023-04-07T07:07:04.570Z,94856.94
2023-04-07T07:09:31.394Z,94854.09
2023-04-07T07:11:58.012Z,94853.59
2023-04-07T07:14:24.714Z,94854.94
2023-04-07T07:16:51.264Z,94860.78
2023-04-07T07:19:17.882Z,94866.75
2023-04-07T07:21:44.605Z,94859.91
2023-04-07T07:24:11.290Z,94864.75
2023-04-07T07:26:38.034Z,94859.59
2023-04-07T07:29:04.959Z,94859.41
2023-04-07T07:31:31.853Z,94859.22
2023-04-07T07:33:58.700Z,94853.06
2023-04-07T07:36:26.680Z,94849.91
2023-04-07T07:38:53.272Z,94853.47
2023-04-07T07:41:19.897Z,94852.34
2023-04-07T07:43:46.666Z,94850.03
2023-04-07T07:46:13.428Z,94847.06
2023-04-07T07:48:40.247Z,94828.56
2023-04-07T07:51:07.037Z,94837.84
2023-04-07T07:53:33.796Z,94833.44
2023-04-07T07:56:00.445Z,94829.63
2023-04-07T07:58:27.011Z,94832.50
2023-04-07T08:00:53.870Z,94826.72
2023-04-07T08:03:22.704Z,94827.78
2023-04-07T08:05:49.986Z,94822.16
2023-04-07T08:08:16.999Z,94826.44
2023-04-07T08:10:43.677Z,94820.56
2023-04-07T08:13:10.843Z,94828.06
2023-04-07T08:15:37.750Z,94827.72
2023-04-07T08:18:06.502Z,94831.75
2023-04-07T08:20:34.043Z,94828.28
2023-04-07T08:23:02.235Z,94836.28
2023-04-07T08:25:29.434Z,94828.44
2023-04-07T08:27:56.297Z,94828.84
2023-04-07T08:30:22.941Z,94830.78
2023-04-07T08:32:49.836Z,94829.50
2023-04-07T08:35:16.554Z,94822.13
2023-04-07T08:37:44.401Z,94824.25
2023-04-07T08:40:12.271Z,94825.25
2023-04-07T08:42:43.024Z,94824.25
2023-04-07T08:45:13.932Z,94826.59
2023-04-07T08:47:44.138Z,94816.38
2023-04-07T08:50:11.904Z,94821.06
2023-04-07T08:52:44.782Z,94814.00
2023-04-07T08:55:11.997Z,94812.56
2023-04-07T08:57:39.202Z,94810.91
2023-04-07T09:00:06.345Z,94817.63
2023-04-07T09:02:34.913Z,94810.44
2023-04-07T09:05:04.468Z,94812.34
2023-04-07T09:07:33.222Z,94805.91
2023-04-07T09:10:00.277Z,94807.94
2023-04-07T09:12:28.427Z,94811.34
2023-04-07T09:14:55.583Z,94808.81
2023-04-07T09:17:22.176Z,94806.38
2023-04-07T09:19:49.256Z,94814.88
2023-04-07T09:22:15.926Z,94814.69
2023-04-07T09:24:42.519Z,94811.06
2023-04-07T09:27:16.951Z,94808.25
2023-04-07T09:29:46.368Z,94816.03
2023-04-07T09:32:14.237Z,94810.19
2023-04-07T09:34:41.729Z,94811.19
2023-04-07T09:37:11.902Z,94809.84
2023-04-07T09:39:53.449Z,94807.41
2023-04-07T09:42:21.605Z,94806.88
2023-04-07T09:44:48.263Z,94799.81
2023-04-07T09:47:15.168Z,94802.59
2023-04-07T09:49:55.476Z,94798.59
2023-04-07T09:52:49.918Z,94797.38
2023-04-07T09:55:17.428Z,94801.56
2023-04-07T09:57:45.340Z,94798.00
2023-04-07T10:00:12.642Z,94798.16
2023-04-07T10:02:43.604Z,94800.66
2023-04-07T10:05:11.996Z,94799.63
2023-04-07T10:07:40.886Z,94794.50
2023-04-07T10:10:09.094Z,94792.44
2023-04-07T10:12:37.884Z,94792.09
2023-04-07T10:15:06.190Z,94789.50
2023-04-07T10:17:33.911Z,94791.31
2023-04-07T10:20:01.850Z,94789.91
2023-04-07T10:22:29.623Z,94790.06
2023-04-07T10:25:02.863Z,94786.69
2023-04-07T10:27:37.069Z,94792.38
2023-04-07T10:30:07.674Z,94786.16
2023-04-07T10:32:50.335Z,94794.31
2023-04-07T10:35:17.587Z,94791.84
2023-04-07T10:38:07.379Z,94783.78
2023-04-07T10:40:35.714Z,94784.56
2023-04-07T10:43:02.818Z,94786.78
2023-04-07T10:45:53.731Z,94787.03
2023-04-07T10:48:20.828Z,94788.56
2023-04-07T10:51:12.477Z,94784.38
2023-04-07T10:53:59.029Z,94778.66
2023-04-07T10:56:25.854Z,94790.06
2023-04-07T10:59:15.348Z,94785.88
2023-04-07T11:01:42.071Z,94787.34
2023-04-07T11:04:09.264Z,94776.81
2023-04-07T11:06:36.195Z,94782.66
2023-04-07T11:09:03.321Z,94778.94
2023-04-07T11:11:38.766Z,94779.41
2023-04-07T11:14:06.212Z,94777.72
2023-04-07T11:16:43.502Z,94777.91
2023-04-07T11:19:10.702Z,94773.88
2023-04-07T11:21:37.408Z,94783.78
2023-04-07T11:24:04.421Z,94779.72
2023-04-07T11:26:38.083Z,94774.09
2023-04-07T11:29:05.306Z,94775.41
2023-04-07T11:31:32.709Z,94770.31
2023-04-07T11:34:05.041Z,94777.97
2023-04-07T11:36:42.208Z,94772.81
2023-04-07T11:39:21.524Z,94768.91
2023-04-07T11:41:49.630Z,94775.38
2023-04-07T11:44:16.941Z,94774.41
2023-04-07T11:47:01.021Z,94775.09
2023-04-07T11:49:28.752Z,94781.44
2023-04-07T11:52:03.195Z,94772.25
2023-04-07T11:54:47.319Z,94774.13
2023-04-07T11:57:14.649Z,94772.78
2023-04-07T11:59:42.009Z,94771.03
2023-04-07T12:02:09.517Z,94760.88
2023-04-07T12:04:39.833Z,94762.22
2023-04-07T12:07:11.308Z,94763.56
2023-04-07T12:09:38.518Z,94761.66
2023-04-07T12:12:07.530Z,94755.13
2023-04-07T12:14:35.831Z,94755.84
2023-04-07T12:17:03.853Z,94767.59
2023-04-07T12:19:36.038Z,94767.28
2023-04-07T12:22:03.444Z,94762.53
2023-04-07T12:24:31.422Z,94760.03
2023-04-07T12:26:58.328Z,94767.59
2023-04-07T12:29:25.048Z,94765.69
2023-04-07T12:31:51.783Z,94773.06
2023-04-07T12:34:18.892Z,94775.06
2023-04-07T12:36:45.624Z,94768.13
2023-04-07T12:39:12.649Z,94778.31
2023-04-07T12:41:39.791Z,94783.94
2023-04-07T12:44:06.481Z,94777.63
2023-04-07T12:46:33.849Z,94772.69
2023-04-07T12:49:01.056Z,94775.03
2023-04-07T12:51:28.555Z,94771.59
2023-04-07T12:53:55.333Z,94777.50
2023-04-07T12:56:24.767Z,94769.72
2023-04-07T12:58:51.660Z,94774.28
2023-04-07T13:01:18.295Z,94774.66
2023-04-07T13:03:45.365Z,94774.53
2023-04-07T13:06:12.296Z,94769.78
2023-04-07T13:08:39.986Z,94768.47
2023-04-07T13:11:07.432Z,94767.66
2023-04-07T13:13:34.452Z,94775.75
2023-04-07T13:16:01.889Z,94769.97
2023-04-07T13:18:28.458Z,94777.78
2023-04-07T13:21:26.322Z,94769.09
2023-04-07T13:23:43.939Z,94763.91
2023-04-07T13:26:11.221Z,94769.94
2023-04-07T13:28:38.066Z,94770.63
2023-04-07T13:31:04.984Z,94773.19
2023-04-07T13:33:31.673Z,94768.88
2023-04-07T13:35:58.319Z,94771.28
2023-04-07T13:38:25.172Z,94776.47
2023-04-07T13:40:51.855Z,94769.28
2023-04-07T13:43:19.158Z,94776.59
2023-04-07T13:45:46.821Z,94766.81
2023-04-07T13:48:13.740Z,94764.78
2023-04-07T13:50:40.869Z,94770.94
2023-04-07T13:53:07.613Z,94771.91
2023-04-07T13:55:34.503Z,94768.50
2023-04-07T13:58:01.437Z,94774.63
2023-04-07T14:00:28.629Z,94768.28
2023-04-07T14:02:56.119Z,94768.56
2023-04-07T14:05:23.847Z,94766.91
2023-04-07T14:07:51.152Z,94769.66
2023-04-07T14:10:18.122Z,94776.97
2023-04-07T14:12:45.031Z,94775.69
2023-04-07T14:15:11.863Z,94771.59
2023-04-07T14:17:38.819Z,94768.47
2023-04-07T14:20:06.407Z,94778.16
2023-04-07T14:22:34.198Z,94768.28
2023-04-07T14:25:00.895Z,94772.22
2023-04-07T14:27:31.059Z,94774.19
2023-04-07T14:29:59.559Z,94773.09
2023-04-07T14:32:29.367Z,94779.09
2023-04-07T14:34:56.662Z,94772.69
2023-04-07T14:37:26.341Z,94776.81
2023-04-07T14:40:02.400Z,94780.16
2023-04-07T14:42:30.844Z,94778.09
2023-04-07T14:44:59.561Z,94774.06
2023-04-07T14:47:26.500Z,94775.34
2023-04-07T14:49:53.835Z,94779.53
2023-04-07T14:52:21.915Z,94777.28
2023-04-07T14:54:48.874Z,94772.41
2023-04-07T14:57:16.609Z,94779.09
2023-04-07T14:59:43.741Z,94782.81
2023-04-07T15:02:10.518Z,94781.00
2023-04-07T15:04:37.272Z,94779.41
2023-04-07T15:07:04.304Z,94777.44
2023-04-07T15:09:31.552Z,94775.84
2023-04-07T15:12:00.354Z,94780.06
2023-04-07T15:14:27.083Z,94772.63
2023-04-07T15:16:53.771Z,94781.16
2023-04-07T15:19:20.387Z,94787.81
2023-04-07T15:21:47.041Z,94781.34
2023-04-07T15:24:15.836Z,94780.84
2023-04-07T15:26:43.175Z,94779.41
2023-04-07T15:29:09.713Z,94781.16
2023-04-07T15:31:36.563Z,94772.47
2023-04-07T15:34:03.539Z,94788.13
2023-04-07T15:36:31.327Z,94785.88
2023-04-07T15:39:04.050Z,94796.50
2023-04-07T15:41:30.848Z,94786.84
2023-04-07T15:43:59.982Z,94797.00
2023-04-07T15:46:27.022Z,94793.59
2023-04-07T15:48:53.602Z,94795.84
2023-04-07T15:51:20.796Z,94790.84
2023-04-07T15:53:47.683Z,94796.97
2023-04-07T15:56:14.778Z,94798.22
2023-04-07T15:58:41.470Z,94799.69
2023-04-07T16:01:08.487Z,94799.81
2023-04-07T16:03:35.313Z,94800.59
2023-04-07T16:06:02.182Z,94805.25
2023-04-07T16:08:28.844Z,94802.31
2023-04-07T16:10:55.431Z,94806.63
2023-04-07T16:13:21.997Z,94804.66
2023-04-07T16:15:48.605Z,94811.72
2023-04-07T16:18:15.587Z,94808.66
2023-04-07T16:20:42.151Z,94811.81
2023-04-07T16:23:09.029Z,94814.50
2023-04-07T16:25:35.881Z,94822.84
2023-04-07T16:28:02.719Z,94822.81
2023-04-07T16:30:29.481Z,94826.44
2023-04-07T16:32:56.150Z,94827.78
2023-04-07T16:35:23.090Z,94828.75
2023-04-07T16:37:50.343Z,94825.69
2023-04-07T16:40:17.291Z,94837.81
2023-04-07T16:42:43.941Z,94840.38
2023-04-07T16:45:11.240Z,94842.47
2023-04-07T16:47:38.072Z,94841.56
2023-04-07T16:50:05.268Z,94838.16
2023-04-07T16:52:32.438Z,94840.81
2023-04-07T16:55:00.373Z,94841.31
2023-04-07T16:57:26.922Z,94847.03
2023-04-07T16:59:53.742Z,94844.66
2023-04-07T17:02:20.568Z,94848.13
2023-04-07T17:04:47.514Z,94844.03
2023-04-07T17:07:14.303Z,94855.94
2023-04-07T17:09:41.082Z,94851.09
2023-04-07T17:12:07.954Z,94860.31
2023-04-07T17:14:34.799Z,94862.34
2023-04-07T17:17:01.894Z,94859.56
2023-04-07T17:19:28.888Z,94866.91
2023-04-07T17:21:56.331Z,94865.44
2023-04-07T17:24:23.253Z,94864.94
2023-04-07T17:26:50.238Z,94865.50
2023-04-07T17:29:17.548Z,94873.38
2023-04-07T17:31:44.462Z,94870.13
2023-04-07T17:34:11.747Z,94873.44
2023-04-07T17:36:38.991Z,94878.19
2023-04-07T17:39:05.934Z,94879.31
2023-04-07T17:41:34.495Z,94887.13
2023-04-07T17:44:02.057Z,94881.63
2023-04-07T17:46:29.170Z,94886.25
2023-04-07T17:48:59.147Z,94890.06
2023-04-07T17:51:26.864Z,94888.44
2023-04-07T17:53:54.107Z,94892.13
2023-04-07T17:56:21.566Z,94894.31
2023-04-07T17:58:48.520Z,94901.47
2023-04-07T18:01:16.944Z,94902.16
2023-04-07T18:03:44.258Z,94902.19
2023-04-07T18:06:17.004Z,94907.50
2023-04-07T18:08:48.073Z,94915.88
2023-04-07T18:11:15.490Z,94918.19
2023-04-07T18:13:42.309Z,94919.28
2023-04-07T18:16:09.695Z,94925.50
2023-04-07T18:18:38.133Z,94934.31
2023-04-07T18:21:07.079Z,94929.31
2023-04-07T18:23:35.280Z,94934.88
2023-04-07T18:26:06.770Z,94933.00
2023-04-07T18:28:34.059Z,94943.41
2023-04-07T18:31:06.876Z,94941.66
2023-04-07T18:33:34.940Z,94936.13
2023-04-07T18:36:07.549Z,94945.44
2023-04-07T18:38:35.964Z,94947.09
2023-04-07T18:41:03.754Z,94950.31
2023-04-07T18:43:31.509Z,94952.34
2023-04-07T18:45:58.533Z,94958.28
2023-04-07T18:48:26.391Z,94960.31
2023-04-07T18:50:54.836Z,94953.97
2023-04-07T18:53:22.696Z,94958.84
2023-04-07T18:55:50.114Z,94960.06
2023-04-07T18:58:16.901Z,94961.66
2023-04-07T19:00:44.655Z,94970.69
2023-04-07T19:03:11.811Z,94968.69
2023-04-07T19:05:39.818Z,94969.19
2023-04-07T19:08:06.588Z,94973.69
2023-04-07T19:10:33.845Z,94974.31
2023-04-07T19:13:01.652Z,94977.41
2023-04-07T19:15:32.787Z,94986.16
2023-04-07T19:17:59.907Z,94983.97
2023-04-07T19:20:27.083Z,94984.97
2023-04-07T19:22:53.836Z,94988.81
2023-04-07T19:25:20.601Z,94987.63
2023-04-07T19:27:48.025Z,94989.78
2023-04-07T19:30:16.407Z,95001.97
2023-04-07T19:32:43.829Z,94998.47
2023-04-07T19:35:11.971Z,95003.47
2023-04-07T19:37:40.209Z,95005.75
2023-04-07T19:40:07.744Z,95004.31
2023-04-07T19:42:35.716Z,95006.88
2023-04-07T19:45:04.776Z,95014.06
2023-04-07T19:47:31.844Z,95013.66
2023-04-07T19:49:58.707Z,95014.19
2023-04-07T19:52:25.311Z,95019.50
2023-04-07T19:54:52.641Z,95019.06
2023-04-07T19:57:19.274Z,95025.78
2023-04-07T19:59:46.120Z,95022.69
2023-04-07T20:02:12.734Z,95027.25
2023-04-07T20:04:39.805Z,95028.88
2023-04-07T20:07:06.616Z,95024.88
2023-04-07T20:09:33.264Z,95025.44
2023-04-07T20:11:59.821Z,95029.44
2023-04-07T20:14:26.458Z,95025.56
2023-04-07T20:16:54.039Z,95026.88
2023-04-07T20:19:21.108Z,95028.06
2023-04-07T20:21:47.877Z,95023.31
2023-04-07T20:24:14.745Z,95020.34
2023-04-07T20:26:41.503Z,95027.34
2023-04-07T20:29:08.362Z,95026.19
2023-04-07T20:31:35.003Z,95028.53
2023-04-07T20:34:01.780Z,95024.28
2023-04-07T20:36:28.332Z,95026.84
2023-04-07T20:38:55.230Z,95034.53
2023-04-07T20:41:25.293Z,95035.88
2023-04-07T20:43:52.857Z,95033.84
2023-04-07T20:46:19.521Z,95036.34
2023-04-07T20:48:46.110Z,95039.28
2023-04-07T20:51:13.742Z,95042.69
2023-04-07T20:53:40.850Z,95034.03
2023-04-07T20:56:07.597Z,95043.59
2023-04-07T20:58:34.278Z,95041.72
2023-04-07T21:01:01.378Z,95038.53
2023-04-07T21:03:28.887Z,95046.53
2023-04-07T21:05:56.784Z,95046.91
2023-04-07T21:08:24.495Z,95052.94
2023-04-07T21:10:52.573Z,95052.88
2023-04-07T21:13:20.231Z,95050.38
2023-04-07T21:15:46.960Z,95045.06
2023-04-07T21:18:13.630Z,95037.97
2023-04-07T21:20:40.313Z,95045.06
2023-04-07T21:23:10.698Z,95040.75
2023-04-07T21:25:40.728Z,95041.94
2023-04-07T21:28:07.453Z,95037.03
2023-04-07T21:30:34.168Z,95035.56
2023-04-07T21:33:01.125Z,95038.22
2023-04-07T21:35:31.532Z,95034.16
2023-04-07T21:37:58.051Z,95037.78
2023-04-07T21:40:24.647Z,95036.03
2023-04-07T21:42:52.105Z,95026.97
2023-04-07T21:45:19.563Z,95039.66
2023-04-07T21:47:46.886Z,95044.66
2023-04-07T21:50:13.742Z,95045.81
2023-04-07T21:52:41.430Z,95043.56
2023-04-07T21:55:10.564Z,95052.22
2023-04-07T21:57:37.417Z,95048.88
2023-04-07T22:00:04.431Z,95046.88
2023-04-07T22:02:41.473Z,95050.91
2023-04-07T22:05:08.981Z,95058.19
2023-04-07T22:07:36.093Z,95047.66
2023-04-07T22:10:03.435Z,95062.97
2023-04-07T22:12:30.245Z,95060.34
2023-04-07T22:14:56.816Z,95057.66
2023-04-07T22:17:23.618Z,95060.03
2023-04-07T22:19:50.353Z,95057.25
2023-04-07T22:22:17.023Z,95060.09
2023-04-07T22:24:43.994Z,95052.59
2023-04-07T22:27:11.326Z,95056.22
2023-04-07T22:29:37.839Z,95056.34
2023-04-07T22:32:04.797Z,95056.28
2023-04-07T22:34:31.506Z,95057.47
2023-04-07T22:36:58.219Z,95060.34
2023-04-07T22:39:25.111Z,95067.22
2023-04-07T22:41:51.624Z,95068.47
2023-04-07T22:44:18.331Z,95070.34
2023-04-07T22:46:45.001Z,95067.16
2023-04-07T22:49:11.648Z,95070.22
2023-04-07T22:51:38.211Z,95080.88
2023-04-07T22:54:04.943Z,95064.41
2023-04-07T22:56:31.672Z,95078.47
2023-04-07T22:59:05.528Z,95077.91
2023-04-07T23:01:33.041Z,95073.25
2023-04-07T23:04:00.160Z,95078.38
2023-04-07T23:06:28.572Z,95081.38
2023-04-07T23:08:55.957Z,95091.16
2023-04-07T23:11:22.867Z,95086.94
2023-04-07T23:13:49.498Z,95086.25
2023-04-07T23:16:16.610Z,95087.53
2023-04-07T23:18:43.369Z,95088.91
2023-04-07T23:21:10.669Z,95097.25
2023-04-07T23:23:39.267Z,95095.59
2023-04-07T23:26:08.775Z,95093.59
2023-04-07T23:28:35.500Z,95089.72
2023-04-07T23:31:02.183Z,95095.03
2023-04-07T23:33:31.579Z,95095.28
2023-04-07T23:35:58.916Z,95094.06
2023-04-07T23:38:26.074Z,95100.94
2023-04-07T23:40:53.248Z,95101.53
2023-04-07T23:43:20.456Z,95100.88
2023-04-07T23:45:47.486Z,95105.03
2023-04-07T23:48:15.460Z,95107.31
2023-04-07T23:50:42.337Z,95106.38
2023-04-07T23:53:09.145Z,95103.16
2023-04-07T23:55:36.247Z,95106.16
2023-04-07T23:58:02.947Z,95096.72
